Time;durP1;ratioP1;P1;durP2;ratioP2;P2;SDS_P1;SDS_P2;PMS_P1;PMS_P2;Temp;Humidity;BMP_temperature;BMP_pressure;BME280_temperature;BME280_humidity;BME280_pressure;Samples;Min_cycle;Max_cycle;Signal;HPM_P1;HPM_P2
2023/02/11 00:01:23;;;;;;;2.50;1.70;;;;;;;-10.63;68.03;97532.29;106670;1276;25712;-67
2023/02/11 00:03:52;;;;;;;6.60;2.50;;;;;;;-10.72;68.11;97532.45;106586;1276;22892;-67
2023/02/11 00:06:23;;;;;;;6.10;2.80;;;;;;;-10.93;68.57;97528.53;106507;1276;24453;-67
2023/02/11 00:08:51;;;;;;;7.60;2.90;;;;;;;-11.04;68.87;97530.36;106583;1276;25621;-67
2023/02/11 00:11:21;;;;;;;3.90;2.60;;;;;;;-10.99;69.25;97532.03;106647;1276;25565;-67
2023/02/11 00:13:49;;;;;;;6.10;2.60;;;;;;;-11.03;69.27;97529.95;106664;1276;22824;-67
2023/02/11 00:16:20;;;;;;;7.70;2.10;;;;;;;-11.04;69.27;97521.86;106606;1276;24254;-67
2023/02/11 00:18:49;;;;;;;4.80;2.70;;;;;;;-11.19;69.67;97524.01;106671;1276;25571;-67
2023/02/11 00:21:20;;;;;;;5.70;3.00;;;;;;;-11.25;69.84;97523.39;106563;1276;22549;-67
2023/02/11 00:23:48;;;;;;;6.70;3.40;;;;;;;-11.17;70.25;97520.30;106721;1276;25612;-67
2023/02/11 00:26:24;;;;;;;7.40;3.30;;;;;;;-11.03;70.13;97513.25;106760;1267;22809;-67
2023/02/11 00:28:52;;;;;;;5.40;2.60;;;;;;;-10.95;69.60;97511.00;106755;1276;24263;-67
2023/02/11 00:31:22;;;;;;;5.80;3.00;;;;;;;-11.01;69.56;97511.23;106510;1276;24208;-68
2023/02/11 00:33:50;;;;;;;4.10;2.40;;;;;;;-11.14;69.73;97507.67;106539;1276;24354;-67
2023/02/11 00:36:24;;;;;;;4.20;2.00;;;;;;;-11.14;70.36;97501.18;106511;1276;24485;-67
2023/02/11 00:38:54;;;;;;;6.70;3.60;;;;;;;-11.12;70.21;97495.11;106775;1276;25459;-67
2023/02/11 00:41:23;;;;;;;4.70;3.10;;;;;;;-10.98;70.37;97487.73;106817;1276;25564;-67
2023/02/11 00:43:51;;;;;;;6.90;3.10;;;;;;;-10.92;69.74;97488.99;106371;1276;22628;-67
2023/02/11 00:46:20;;;;;;;9.00;4.10;;;;;;;-10.94;69.92;97488.13;106748;1276;22825;-67
2023/02/11 00:48:50;;;;;;;12.40;3.80;;;;;;;-10.88;70.47;97490.23;106859;1276;22752;-67
2023/02/11 00:51:21;;;;;;;6.80;2.90;;;;;;;-10.81;70.03;97486.27;106542;1276;25354;-67
2023/02/11 00:53:49;;;;;;;7.00;2.70;;;;;;;-10.84;69.17;97476.80;106752;1276;22616;-67
2023/02/11 00:56:17;;;;;;;7.60;3.40;;;;;;;-11.01;68.94;97478.66;106705;1276;25057;-67
2023/02/11 00:58:45;;;;;;;5.00;2.80;;;;;;;-11.02;69.87;97478.48;106794;1276;25666;-67
2023/02/11 01:01:14;;;;;;;5.90;2.40;;;;;;;-11.14;70.57;97475.86;106685;1276;24261;-67
2023/02/11 01:03:43;;;;;;;7.20;3.70;;;;;;;-11.22;69.97;97478.88;106646;1264;23015;-67
2023/02/11 01:06:11;;;;;;;6.20;3.40;;;;;;;-11.20;70.07;97473.61;106528;1276;25375;-67
2023/02/11 01:08:39;;;;;;;4.50;2.70;;;;;;;-11.13;70.11;97467.67;106625;1276;22703;-67
2023/02/11 01:11:15;;;;;;;6.60;3.00;;;;;;;-11.16;69.52;97466.52;106563;1276;25458;-67
2023/02/11 01:13:46;;;;;;;9.50;3.90;;;;;;;-11.27;69.25;97459.02;106554;1276;22586;-67
2023/02/11 01:16:17;;;;;;;6.80;3.50;;;;;;;-11.24;69.71;97460.61;106652;1276;22663;-68
2023/02/11 01:18:46;;;;;;;6.30;3.40;;;;;;;-11.16;69.93;97458.52;106415;1276;24242;-67
2023/02/11 01:21:15;;;;;;;8.20;3.50;;;;;;;-11.16;69.94;97447.68;106528;1276;25391;-67
2023/02/11 01:23:43;;;;;;;7.20;4.10;;;;;;;-11.07;69.96;97446.45;106474;1276;22729;-67
2023/02/11 01:26:12;;;;;;;7.00;3.60;;;;;;;-11.02;69.72;97443.49;106543;1276;25484;-67
2023/02/11 01:28:40;;;;;;;7.30;3.80;;;;;;;-10.95;69.57;97439.22;106609;1276;22683;-67
2023/02/11 01:31:09;;;;;;;9.70;3.90;;;;;;;-11.02;69.56;97435.51;106575;1276;22670;-67
2023/02/11 01:33:37;;;;;;;6.20;2.80;;;;;;;-11.13;69.11;97433.34;106590;1276;25493;-67
2023/02/11 01:36:07;;;;;;;6.90;3.20;;;;;;;-11.17;69.30;97431.20;106528;1276;22659;-67
2023/02/11 01:38:35;;;;;;;7.40;3.60;;;;;;;-11.12;69.64;97430.56;106643;1276;22761;-67
2023/02/11 01:41:10;;;;;;;6.40;3.10;;;;;;;-11.08;69.52;97428.01;106351;1276;25054;-67
2023/02/11 01:43:45;;;;;;;7.20;3.40;;;;;;;-11.26;69.41;97426.34;106657;1276;24200;-67
2023/02/11 01:46:30;;;;;;;6.50;3.70;;;;;;;-11.26;69.80;97421.20;106480;1276;24368;-67
2023/02/11 01:49:17;;;;;;;8.80;3.60;;;;;;;-11.22;69.83;97416.66;106881;1276;25625;-67
2023/02/11 01:52:05;;;;;;;7.60;3.20;;;;;;;-11.09;70.11;97419.04;106837;1276;24127;-67
2023/02/11 01:57:28;;;;;;;7.40;3.50;;;;;;;-11.46;69.22;97419.16;106820;1276;24262;-67
2023/02/11 02:00:19;;;;;;;7.70;3.30;;;;;;;-11.49;69.91;97425.02;106778;1276;22598;-67
2023/02/11 02:03:21;;;;;;;7.10;3.30;;;;;;;-11.44;70.36;97425.13;106687;1276;24089;-67
2023/02/11 02:06:14;;;;;;;5.40;2.90;;;;;;;-11.57;70.15;97428.36;106784;1276;22649;-67
2023/02/11 02:08:49;;;;;;;;;;;;;;;-11.64;70.31;97425.51;106669;1276;24178;-67
2023/02/11 02:11:17;;;;;;;7.40;3.20;;;;;;;-11.63;70.25;97427.48;106662;1276;25277;-67
2023/02/11 02:13:45;;;;;;;10.70;3.80;;;;;;;-11.66;70.08;97426.27;106464;1276;22598;-67
2023/02/11 02:16:16;;;;;;;6.50;3.20;;;;;;;-11.65;70.34;97422.96;106534;1276;24232;-67
2023/02/11 02:19:12;;;;;;;5.90;3.00;;;;;;;-11.54;70.58;97415.94;106770;1276;25496;-67
2023/02/11 02:22:06;;;;;;;7.10;3.70;;;;;;;-11.36;70.81;97411.27;106655;1276;25676;-67
2023/02/11 02:24:40;;;;;;;5.60;2.70;;;;;;;-11.22;70.59;97396.80;106528;1276;25587;-67
2023/02/11 02:27:18;;;;;;;6.40;3.40;;;;;;;-11.24;70.17;97395.28;106686;1272;22651;-67
2023/02/11 02:29:53;;;;;;;8.60;3.70;;;;;;;-11.34;70.31;97394.89;106760;1276;25590;-67
2023/02/11 02:32:21;;;;;;;5.50;3.30;;;;;;;-11.42;70.33;97395.29;106853;1276;22642;-67
2023/02/11 02:34:57;;;;;;;8.40;3.00;;;;;;;-11.34;70.63;97393.04;106849;1260;23089;-67
2023/02/11 02:37:58;;;;;;;7.00;3.30;;;;;;;-11.25;70.32;97393.08;106809;1276;22646;-67
2023/02/11 02:40:43;;;;;;;6.00;3.10;;;;;;;-11.32;69.69;97391.58;106773;1276;25552;-67
2023/02/11 02:43:14;;;;;;;6.50;3.40;;;;;;;-11.58;69.40;97384.45;106865;1276;22824;-67
2023/02/11 02:45:42;;;;;;;9.60;4.30;;;;;;;-11.69;70.12;97383.02;106908;1276;22578;-67
2023/02/11 02:48:43;;;;;;;4.00;2.30;;;;;;;-11.79;70.01;97382.16;106849;1276;24035;-67
2023/02/11 02:51:41;;;;;;;10.20;5.30;;;;;;;-11.92;70.24;97379.73;106390;1276;24176;-67
2023/02/11 02:54:28;;;;;;;7.60;2.90;;;;;;;-11.98;70.39;97387.16;106478;1276;24355;-67
2023/02/11 02:57:05;;;;;;;5.30;3.10;;;;;;;-11.98;70.81;97386.27;106578;1276;24438;-67
2023/02/11 02:59:48;;;;;;;4.80;2.80;;;;;;;-11.89;70.98;97382.11;106797;1276;25294;-68
2023/02/11 03:02:33;;;;;;;5.80;2.70;;;;;;;-11.81;70.59;97378.92;106870;1276;22638;-67
2023/02/11 03:05:31;;;;;;;6.50;3.00;;;;;;;-11.86;70.93;97382.52;106649;1276;25530;-67
2023/02/11 03:08:11;;;;;;;8.20;4.10;;;;;;;-11.75;71.46;97384.41;106591;1276;25336;-67
2023/02/11 03:10:50;;;;;;;8.20;4.10;;;;;;;-11.70;71.53;97391.81;106591;1276;22679;-67
2023/02/11 03:13:24;;;;;;;6.90;3.20;;;;;;;-11.61;71.30;97387.96;106419;1276;22547;-67
2023/02/11 03:15:56;;;;;;;6.80;2.80;;;;;;;-11.52;70.89;97385.16;106804;1276;22654;-67
2023/02/11 03:18:27;;;;;;;6.80;3.40;;;;;;;-11.49;70.69;97381.59;106828;1276;26689;-67
2023/02/11 03:20:56;;;;;;;7.60;2.80;;;;;;;-11.36;70.99;97375.45;106856;1276;24232;-67
2023/02/11 03:23:34;;;;;;;6.40;2.90;;;;;;;-11.31;70.45;97375.42;106864;1276;22565;-67
2023/02/11 03:26:11;;;;;;;6.30;2.90;;;;;;;-11.49;69.60;97380.03;106826;1276;24364;-67
2023/02/11 03:29:02;;;;;;;5.30;2.50;;;;;;;-11.60;69.80;97376.59;106763;1276;22811;-67
2023/02/11 03:31:40;;;;;;;6.20;2.60;;;;;;;-11.71;69.66;97376.23;106852;1276;24286;-67
2023/02/11 03:34:15;;;;;;;5.60;2.90;;;;;;;-11.76;70.26;97382.66;106828;1276;25351;-67
2023/02/11 03:36:48;;;;;;;5.70;2.50;;;;;;;-11.77;70.12;97380.81;106744;1276;22640;-67
2023/02/11 03:39:36;;;;;;;8.70;3.30;;;;;;;-11.79;70.33;97381.20;106866;1276;25283;-67
2023/02/11 03:42:08;;;;;;;6.20;2.70;;;;;;;-11.80;70.33;97378.50;106854;1276;25553;-67
2023/02/11 03:44:48;;;;;;;8.10;3.10;;;;;;;-11.80;70.29;97379.48;106798;1276;25645;-68
2023/02/11 03:47:22;;;;;;;6.10;3.00;;;;;;;-11.80;70.55;97383.60;106839;1276;22748;-68
2023/02/11 03:49:53;;;;;;;5.00;3.00;;;;;;;-11.71;70.75;97377.42;106748;1276;24970;-68
2023/02/11 03:52:23;;;;;;;5.60;1.70;;;;;;;-11.61;70.90;97371.41;106686;1276;22601;-68
2023/02/11 03:54:55;;;;;;;5.30;2.50;;;;;;;-11.71;69.95;97367.92;106633;1276;22563;-68
2023/02/11 03:57:23;;;;;;;6.30;3.10;;;;;;;-11.83;70.37;97365.51;106679;1276;21752;-68
2023/02/11 03:59:57;;;;;;;7.20;2.80;;;;;;;-11.86;70.27;97360.80;106633;1274;24248;-68
2023/02/11 04:02:32;;;;;;;5.30;2.60;;;;;;;-12.01;69.97;97356.34;106877;1276;24512;-68
2023/02/11 04:05:01;;;;;;;5.10;2.50;;;;;;;-11.98;70.70;97349.48;106813;1276;22604;-68
2023/02/11 04:07:29;;;;;;;5.80;3.10;;;;;;;-11.83;71.21;97347.66;106578;1276;22535;-68
2023/02/11 04:09:57;;;;;;;9.70;3.80;;;;;;;-11.76;71.34;97345.30;106656;1276;22725;-68
2023/02/11 04:12:25;;;;;;;5.40;3.10;;;;;;;-11.78;70.75;97342.32;106586;1276;25342;-68
2023/02/11 04:14:53;;;;;;;5.20;3.30;;;;;;;-11.91;70.54;97335.17;106617;1276;22962;-68
2023/02/11 04:17:22;;;;;;;4.60;2.80;;;;;;;-11.89;70.80;97332.54;106665;1276;24357;-68
2023/02/11 04:19:50;;;;;;;5.90;2.90;;;;;;;-11.91;70.50;97337.45;106603;1276;22539;-68
2023/02/11 04:22:18;;;;;;;6.90;2.90;;;;;;;-11.84;70.81;97334.52;106588;1253;22850;-66
2023/02/11 04:24:46;;;;;;;10.90;4.50;;;;;;;-11.82;70.43;97333.02;106574;1276;24214;-66
2023/02/11 04:27:14;;;;;;;12.80;6.50;;;;;;;-12.03;70.19;97331.42;106449;1276;22645;-66
2023/02/11 04:29:42;;;;;;;4.40;2.60;;;;;;;-12.19;69.99;97328.13;106635;1276;25597;-66
2023/02/11 04:32:11;;;;;;;8.90;3.50;;;;;;;-12.19;70.68;97326.48;106601;1276;21876;-66
2023/02/11 04:34:39;;;;;;;7.20;3.00;;;;;;;-12.13;70.67;97320.39;106318;1276;25556;-66
2023/02/11 04:37:07;;;;;;;6.00;2.80;;;;;;;-11.99;71.17;97315.33;106620;1276;22743;-66
2023/02/11 04:39:35;;;;;;;5.10;2.80;;;;;;;-11.97;70.49;97313.27;106562;1259;22861;-67
2023/02/11 04:42:04;;;;;;;4.60;2.30;;;;;;;-11.95;70.54;97315.96;106548;1276;22587;-66
2023/02/11 04:44:32;;;;;;;7.60;2.90;;;;;;;-12.03;70.21;97309.68;106566;1274;22772;-67
2023/02/11 04:47:00;;;;;;;5.50;2.70;;;;;;;-11.99;70.75;97315.83;106420;1276;24208;-67
2023/02/11 04:49:29;;;;;;;6.30;3.10;;;;;;;-12.01;70.72;97316.30;106841;1276;24221;-66
2023/02/11 04:51:57;;;;;;;7.80;2.20;;;;;;;-11.96;71.02;97315.40;106655;1276;22573;-67
2023/02/11 04:54:26;;;;;;;5.10;2.70;;;;;;;-12.00;70.87;97314.55;106598;1276;22646;-67
2023/02/11 04:56:54;;;;;;;4.60;2.80;;;;;;;-12.05;70.85;97314.59;106361;1276;24198;-67
2023/02/11 04:59:23;;;;;;;6.60;2.90;;;;;;;-12.16;71.17;97320.79;106630;1262;25372;-67
2023/02/11 05:01:51;;;;;;;9.10;3.60;;;;;;;-12.14;71.48;97329.61;106550;1276;24215;-67
2023/02/11 05:04:19;;;;;;;4.80;2.60;;;;;;;-12.09;71.23;97324.85;106548;1276;22655;-67
2023/02/11 05:06:48;;;;;;;5.80;2.80;;;;;;;-12.11;70.82;97320.75;106443;1276;22669;-67
2023/02/11 05:09:16;;;;;;;5.20;2.80;;;;;;;-12.22;70.52;97322.48;106087;1276;645779;-66
2023/02/11 05:11:44;;;;;;;4.60;2.60;;;;;;;-12.29;71.37;97319.55;106533;1276;25511;-67
2023/02/11 05:14:12;;;;;;;8.50;4.00;;;;;;;-12.27;71.99;97321.98;106399;1274;24268;-67
2023/02/11 05:16:40;;;;;;;8.20;3.60;;;;;;;-12.22;72.13;97328.71;106556;1276;25360;-66
2023/02/11 05:19:08;;;;;;;9.20;4.30;;;;;;;-12.13;72.11;97330.62;106507;1276;22598;-67
2023/02/11 05:21:37;;;;;;;5.00;2.60;;;;;;;-12.00;71.78;97327.31;106424;1276;22630;-66
2023/02/11 05:24:06;;;;;;;5.10;2.30;;;;;;;-11.91;71.56;97326.29;106327;1276;25564;-66
2023/02/11 05:26:34;;;;;;;7.30;3.30;;;;;;;-11.98;70.66;97317.02;106607;1276;24180;-67
2023/02/11 05:29:02;;;;;;;6.20;2.90;;;;;;;-12.05;70.82;97318.01;106397;1276;22557;-67
2023/02/11 05:31:31;;;;;;;7.80;3.80;;;;;;;-12.01;71.28;97316.34;106562;1276;22609;-67
2023/02/11 05:34:02;;;;;;;8.40;3.20;;;;;;;-11.96;70.94;97316.89;106607;1276;24267;-67
2023/02/11 05:36:31;;;;;;;4.80;2.90;;;;;;;-11.94;71.05;97313.74;106351;1276;22592;-67
2023/02/11 05:39:00;;;;;;;5.00;2.50;;;;;;;-11.86;71.09;97314.77;106618;1276;25755;-67
2023/02/11 05:41:28;;;;;;;5.00;2.60;;;;;;;-11.81;71.06;97312.77;106587;1276;22619;-67
2023/02/11 05:43:57;;;;;;;5.70;2.50;;;;;;;-11.90;70.04;97313.41;106551;1276;22620;-67
2023/02/11 05:46:25;;;;;;;13.20;4.60;;;;;;;-12.05;70.14;97315.21;106395;1276;21903;-67
2023/02/11 05:48:55;;;;;;;20.00;7.40;;;;;;;-12.23;70.40;97312.31;106396;1276;26705;-67
2023/02/11 05:51:24;;;;;;;5.10;2.80;;;;;;;-12.25;70.67;97310.36;106554;1276;22590;-67
2023/02/11 05:53:52;;;;;;;6.20;2.80;;;;;;;-12.23;70.75;97316.11;106578;1276;22556;-67
2023/02/11 05:56:20;;;;;;;20.20;8.00;;;;;;;-12.14;71.43;97313.33;106406;1276;22741;-67
2023/02/11 05:58:48;;;;;;;34.50;12.40;;;;;;;-12.08;71.10;97313.46;106595;1276;23275;-67
2023/02/11 06:01:17;;;;;;;6.60;2.80;;;;;;;-12.10;70.69;97311.16;106608;1276;22584;-67
2023/02/11 06:03:46;;;;;;;4.90;2.30;;;;;;;-12.02;71.07;97313.14;106544;1261;23050;-67
2023/02/11 06:06:14;;;;;;;6.30;2.80;;;;;;;-11.98;70.77;97310.83;106585;1276;24171;-67
2023/02/11 06:08:42;;;;;;;6.50;2.80;;;;;;;-11.90;70.87;97310.00;106614;1276;24329;-67
2023/02/11 06:11:14;;;;;;;4.30;2.10;;;;;;;-11.90;70.39;97302.17;106609;1276;24431;-67
2023/02/11 06:13:42;;;;;;;6.90;3.00;;;;;;;-12.00;70.01;97301.83;106463;1276;24201;-67
2023/02/11 06:16:11;;;;;;;5.90;2.60;;;;;;;-12.00;70.48;97296.23;106588;1276;22651;-67
2023/02/11 06:18:39;;;;;;;6.50;2.70;;;;;;;-11.99;70.93;97298.49;106568;1276;24476;-67
2023/02/11 06:21:09;;;;;;;24.50;10.60;;;;;;;-11.89;71.70;97295.84;106406;1276;21929;-67
2023/02/11 06:23:37;;;;;;;30.30;13.90;;;;;;;-11.87;71.49;97297.45;106465;1276;25360;-67
2023/02/11 06:26:07;;;;;;;32.70;14.00;;;;;;;-11.83;71.15;97295.02;106565;1276;24256;-67
2023/02/11 06:28:36;;;;;;;10.20;3.80;;;;;;;-11.85;70.81;97290.64;106581;1265;22872;-67
2023/02/11 06:31:10;;;;;;;7.40;3.40;;;;;;;-11.76;71.59;97295.55;106667;1276;22525;-67
2023/02/11 06:33:39;;;;;;;4.80;1.80;;;;;;;-11.55;71.94;97298.31;106516;1276;25497;-67
2023/02/11 06:36:21;;;;;;;5.90;3.00;;;;;;;-11.48;71.08;97299.05;106395;1276;24354;-68
2023/02/11 06:38:50;;;;;;;7.80;3.60;;;;;;;-11.44;71.56;97296.43;106581;1276;25728;-67
2023/02/11 06:41:19;;;;;;;33.70;14.10;;;;;;;-11.37;71.98;97296.04;106427;1275;26806;-67
2023/02/11 06:43:48;;;;;;;29.10;13.60;;;;;;;-11.22;72.36;97302.17;106635;1276;24454;-67
2023/02/11 06:46:16;;;;;;;29.40;14.30;;;;;;;-11.07;72.00;97299.79;106652;1276;22604;-67
2023/02/11 06:48:44;;;;;;;32.80;14.10;;;;;;;-10.95;71.41;97299.00;106576;1276;22683;-67
2023/02/11 06:51:14;;;;;;;36.70;15.40;;;;;;;-10.78;71.45;97300.68;106486;1276;24595;-67
2023/02/11 06:53:44;;;;;;;67.00;25.30;;;;;;;-10.59;71.08;97296.26;106597;1276;23026;-68
2023/02/11 06:56:20;;;;;;;65.10;25.70;;;;;;;-10.33;70.98;97302.98;106437;1276;22698;-67
2023/02/11 06:58:53;;;;;;;60.80;28.00;;;;;;;-10.10;69.98;97303.33;106468;1276;24227;-67
2023/02/11 07:01:23;;;;;;;60.10;27.90;;;;;;;-9.84;69.93;97302.45;106593;1276;22533;-67
2023/02/11 07:03:52;;;;;;;62.50;28.80;;;;;;;-9.62;69.24;97298.09;106591;1276;22657;-67
2023/02/11 07:06:23;;;;;;;44.20;21.90;;;;;;;-9.50;68.57;97299.21;106602;1276;22555;-67
2023/02/11 07:08:51;;;;;;;41.70;20.30;;;;;;;-9.46;68.76;97293.65;106581;1276;22671;-67
2023/02/11 07:11:23;;;;;;;37.80;18.60;;;;;;;-9.42;68.76;97300.40;106554;1276;25747;-67
2023/02/11 07:13:54;;;;;;;38.40;18.80;;;;;;;-9.36;69.24;97291.69;106578;1276;22631;-67
2023/02/11 07:16:22;;;;;;;44.70;21.10;;;;;;;-9.21;69.11;97284.48;106592;1276;22761;-67
2023/02/11 07:18:50;;;;;;;59.50;28.00;;;;;;;-8.94;69.06;97286.86;106573;1276;23022;-66
2023/02/11 07:21:21;;;;;;;68.80;34.00;;;;;;;-8.63;68.36;97282.76;106612;1276;22793;-67
2023/02/11 07:23:50;;;;;;;54.20;27.70;;;;;;;-8.33;67.61;97277.27;106418;1276;22711;-67
2023/02/11 07:26:27;;;;;;;50.90;24.30;;;;;;;-8.03;67.47;97273.36;106611;1276;22545;-67
2023/02/11 07:28:56;;;;;;;61.80;27.20;;;;;;;-7.73;66.03;97266.63;106576;1276;22621;-67
2023/02/11 07:31:27;;;;;;;66.60;30.20;;;;;;;-7.55;64.82;97265.46;106552;1276;22643;-67
2023/02/11 07:33:58;;;;;;;66.80;30.50;;;;;;;-7.47;64.38;97259.16;106366;1276;24403;-67
2023/02/11 07:36:29;;;;;;;50.30;24.50;;;;;;;-7.30;65.00;97259.87;106620;1264;25630;-67
2023/02/11 07:38:57;;;;;;;41.80;20.10;;;;;;;-7.12;63.68;97253.91;106667;1276;24126;-66
2023/02/11 07:41:26;;;;;;;33.20;13.80;;;;;;;-6.99;63.26;97250.98;106694;1276;22643;-66
2023/02/11 07:43:55;;;;;;;18.60;9.90;;;;;;;-6.75;62.27;97250.14;106889;1276;24302;-67
2023/02/11 07:46:25;;;;;;;19.90;9.00;;;;;;;-6.62;61.74;97250.13;106739;1276;23393;-67
2023/02/11 07:48:54;;;;;;;23.40;10.50;;;;;;;-6.51;60.79;97244.91;106571;1276;22613;-67
2023/02/11 07:51:25;;;;;;;22.50;9.80;;;;;;;-6.58;60.64;97238.10;106743;1259;23194;-66
2023/02/11 07:53:55;;;;;;;23.10;11.50;;;;;;;-6.65;60.67;97230.76;106428;1274;22790;-67
2023/02/11 07:56:23;;;;;;;35.50;19.40;;;;;;;-6.50;60.70;97222.91;106582;1276;22647;-66
2023/02/11 07:58:52;;;;;;;25.00;12.90;;;;;;;-6.32;61.29;97213.89;106469;1276;22628;-66
2023/02/11 08:01:23;;;;;;;22.00;11.10;;;;;;;-5.97;60.75;97203.19;106645;1276;25545;-66
2023/02/11 08:03:53;;;;;;;27.50;13.70;;;;;;;-5.68;60.14;97202.28;106750;1276;24252;-67
2023/02/11 08:06:23;;;;;;;26.70;13.60;;;;;;;-5.47;60.48;97192.60;106517;1276;25532;-67
2023/02/11 08:08:52;;;;;;;23.70;12.70;;;;;;;-5.25;59.76;97181.90;106757;1276;24248;-67
2023/02/11 08:11:23;;;;;;;26.30;13.10;;;;;;;-5.10;58.99;97174.52;106829;1276;22829;-66
2023/02/11 08:13:52;;;;;;;21.10;11.40;;;;;;;-4.88;59.16;97170.60;106802;1276;22812;-66
2023/02/11 08:16:29;;;;;;;22.10;11.00;;;;;;;-4.67;58.68;97164.30;106867;1276;22734;-66
2023/02/11 08:19:01;;;;;;;21.30;10.50;;;;;;;-4.38;58.35;97160.27;106660;1276;24215;-67
2023/02/11 08:21:29;;;;;;;21.50;11.70;;;;;;;-4.07;58.40;97155.54;106619;1276;22586;-67
2023/02/11 08:23:58;;;;;;;22.70;10.60;;;;;;;-3.85;56.31;97151.89;106641;1276;22534;-66
2023/02/11 08:26:28;;;;;;;23.70;11.40;;;;;;;-3.70;55.18;97147.48;106470;1276;25433;-66
2023/02/11 08:28:57;;;;;;;24.40;12.00;;;;;;;-3.48;55.20;97145.75;106643;1276;22536;-67
2023/02/11 08:31:32;;;;;;;19.80;10.60;;;;;;;-3.26;54.85;97144.45;106636;1276;24254;-66
2023/02/11 08:34:01;;;;;;;16.00;8.10;;;;;;;-3.10;55.14;97133.20;106345;1276;22531;-67
2023/02/11 08:36:33;;;;;;;18.80;9.70;;;;;;;-3.03;54.08;97126.73;106416;1276;24085;-66
2023/02/11 08:39:04;;;;;;;18.50;9.80;;;;;;;-2.92;53.82;97124.77;106601;1276;22530;-67
2023/02/11 08:41:49;;;;;;;27.00;12.70;;;;;;;-2.71;53.84;97126.31;106590;1276;22532;-66
2023/02/11 08:44:18;;;;;;;24.30;13.40;;;;;;;-2.48;54.24;97121.77;106733;1276;23894;-66
2023/02/11 08:46:47;;;;;;;34.00;18.80;;;;;;;-2.20;54.13;97121.06;106823;1276;22560;-66
2023/02/11 08:49:16;;;;;;;28.90;17.70;;;;;;;-1.95;53.76;97124.98;106502;1276;22737;-66
2023/02/11 08:51:45;;;;;;;18.10;10.60;;;;;;;-1.75;51.70;97118.48;106520;1276;22770;-66
2023/02/11 08:54:14;;;;;;;24.00;14.50;;;;;;;-1.60;51.05;97112.39;106836;1276;22618;-66
2023/02/11 08:56:42;;;;;;;22.80;11.80;;;;;;;-1.45;51.42;97110.57;106475;1276;25651;-66
2023/02/11 08:59:13;;;;;;;22.20;11.20;;;;;;;-1.31;51.56;97109.06;106558;1276;25224;-66
2023/02/11 09:01:42;;;;;;;24.70;13.80;;;;;;;-1.11;51.17;97110.39;106568;1276;24253;-67
2023/02/11 09:04:12;;;;;;;17.30;8.80;;;;;;;-0.99;49.65;97109.98;106564;1276;24270;-67
2023/02/11 09:06:40;;;;;;;18.20;9.70;;;;;;;-1.10;49.48;97110.11;106583;1276;22533;-66
2023/02/11 09:09:14;;;;;;;29.40;15.40;;;;;;;-1.31;50.15;97106.48;106624;1276;23905;-66
2023/02/11 09:11:43;;;;;;;34.80;19.20;;;;;;;-1.27;51.02;97106.30;106642;1276;22615;-67
2023/02/11 09:14:21;;;;;;;29.50;15.00;;;;;;;-1.02;51.80;97111.74;106568;1276;24243;-66
2023/02/11 09:16:50;;;;;;;17.20;9.20;;;;;;;-0.87;51.61;97105.91;106746;1276;25777;-67
2023/02/11 09:19:20;;;;;;;26.10;11.90;;;;;;;-0.74;52.00;97097.55;106808;1276;24314;-67
2023/02/11 09:21:48;;;;;;;21.20;11.20;;;;;;;-0.53;51.69;97089.42;106589;1276;24204;-67
2023/02/11 09:24:17;;;;;;;18.60;9.20;;;;;;;-0.50;51.01;97081.98;106824;1276;22533;-67
2023/02/11 09:26:45;;;;;;;24.30;11.60;;;;;;;-0.54;51.22;97088.53;106854;1276;25290;-67
2023/02/11 09:29:13;;;;;;;20.40;10.90;;;;;;;-0.43;52.08;97084.38;106687;1276;25395;-67
2023/02/11 09:31:41;;;;;;;21.50;11.50;;;;;;;-0.14;51.59;97080.02;106757;1276;23935;-67
2023/02/11 09:34:10;;;;;;;22.80;11.10;;;;;;;0.12;51.17;97077.91;106575;1276;24395;-67
2023/02/11 09:36:39;;;;;;;23.80;11.70;;;;;;;0.12;50.61;97077.77;106632;1276;25304;-67
2023/02/11 09:39:13;;;;;;;21.10;11.10;;;;;;;0.02;50.88;97080.77;106681;1276;22530;-68
2023/02/11 09:41:50;;;;;;;18.20;10.70;;;;;;;0.04;51.45;97083.59;106790;1266;24068;-67
2023/02/11 09:44:24;;;;;;;19.30;10.60;;;;;;;0.28;50.72;97085.73;106838;1276;22660;-68
2023/02/11 09:47:00;;;;;;;18.00;10.70;;;;;;;0.51;49.85;97087.10;106867;1276;22655;-68
2023/02/11 09:49:43;;;;;;;24.10;14.30;;;;;;;0.74;48.56;97087.77;106539;1276;25368;-69
2023/02/11 09:52:17;;;;;;;22.30;12.90;;;;;;;0.93;48.68;97078.86;106624;1276;24225;-68
2023/02/11 09:54:55;;;;;;;24.80;12.50;;;;;;;1.02;48.68;97079.76;106667;1276;24170;-68
2023/02/11 09:57:35;;;;;;;30.50;14.60;;;;;;;1.00;48.55;97079.53;106495;1276;22524;-69
2023/02/11 10:00:23;;;;;;;23.90;11.80;;;;;;;1.13;48.88;97073.15;106551;1266;24213;-68
2023/02/11 10:02:56;;;;;;;25.50;12.30;;;;;;;1.43;47.59;97069.87;106533;1276;22521;-68
2023/02/11 10:06:18;;;;;;;24.90;13.50;;;;;;;1.31;47.20;97059.47;106596;1276;25238;-68
2023/02/11 10:09:08;;;;;;;21.90;11.50;;;;;;;1.46;48.01;97056.80;106458;1276;22525;-68
2023/02/11 10:11:46;;;;;;;23.80;12.20;;;;;;;1.49;48.19;97048.78;106665;1276;22646;-68
2023/02/11 10:14:14;;;;;;;22.70;12.50;;;;;;;1.71;48.22;97043.41;106664;1276;22643;-68
2023/02/11 10:16:53;;;;;;;23.10;12.70;;;;;;;2.07;47.58;97039.55;106551;1276;22990;-68
2023/02/11 10:19:46;;;;;;;24.50;13.20;;;;;;;2.37;47.14;97041.02;106597;1276;22549;-67
2023/02/11 10:22:32;;;;;;;26.80;14.40;;;;;;;2.61;46.84;97042.91;106592;1276;22528;-68
2023/02/11 10:25:16;;;;;;;22.80;11.80;;;;;;;3.15;46.08;97032.58;106736;1276;22730;-68
2023/02/11 10:27:45;;;;;;;24.20;13.60;;;;;;;3.50;45.92;97026.23;106675;1276;22743;-68
2023/02/11 10:30:36;;;;;;;23.50;12.50;;;;;;;3.89;45.44;97023.43;106610;1276;22643;-67
2023/02/11 10:33:49;;;;;;;25.40;13.80;;;;;;;4.37;45.31;97001.84;106588;1276;22537;-68
2023/02/11 10:36:27;;;;;;;25.10;14.10;;;;;;;4.48;43.97;96989.61;106349;1280;23895;-68
2023/02/11 10:38:58;;;;;;;26.70;15.10;;;;;;;4.00;43.05;96987.73;106548;1276;25271;-68
2023/02/11 10:41:33;;;;;;;22.80;12.00;;;;;;;3.74;44.37;96984.70;106617;1276;22548;-68
2023/02/11 10:44:02;;;;;;;21.50;12.50;;;;;;;3.29;46.20;96979.65;106633;1276;24366;-67
2023/02/11 10:46:34;;;;;;;23.00;13.00;;;;;;;3.12;47.47;96976.85;106645;1276;22573;-67
2023/02/11 10:49:02;;;;;;;19.90;12.50;;;;;;;2.92;47.84;96969.59;106618;1276;25230;-68
2023/02/11 10:51:33;;;;;;;25.20;13.90;;;;;;;2.88;49.14;96966.50;106487;1276;22645;-68
2023/02/11 10:54:18;;;;;;;19.10;11.50;;;;;;;2.80;49.44;96967.29;106615;1276;22656;-68
2023/02/11 10:56:57;;;;;;;22.80;12.70;;;;;;;2.71;50.29;96964.02;106647;1276;23801;-68
2023/02/11 10:59:28;;;;;;;22.60;14.00;;;;;;;2.58;49.96;96959.06;106618;1276;25310;-68
2023/02/11 11:02:06;;;;;;;20.60;12.00;;;;;;;2.51;50.57;96953.96;106627;1276;22646;-67
2023/02/11 11:04:39;;;;;;;25.40;11.60;;;;;;;2.52;51.38;96947.58;106721;1276;23881;-68
2023/02/11 11:07:20;;;;;;;20.20;12.10;;;;;;;2.94;50.81;96938.03;106618;1276;22648;-68
2023/02/11 11:09:54;;;;;;;19.20;11.60;;;;;;;3.24;50.15;96926.29;106634;1276;26513;-68
2023/02/11 11:12:44;;;;;;;21.30;12.90;;;;;;;3.48;50.31;96928.22;106560;1276;22645;-68
2023/02/11 11:15:21;;;;;;;18.30;11.10;;;;;;;3.47;48.75;96926.81;106549;1276;22532;-67
2023/02/11 11:18:08;;;;;;;21.70;11.60;;;;;;;3.29;49.96;96923.30;106591;1276;24268;-67
2023/02/11 11:20:58;;;;;;;20.20;10.40;;;;;;;3.21;50.04;96924.45;106560;1276;25337;-68
2023/02/11 11:23:28;;;;;;;20.40;11.30;;;;;;;3.12;50.11;96918.77;106624;1274;22528;-67
2023/02/11 11:26:12;;;;;;;21.10;12.20;;;;;;;3.11;50.34;96927.98;106613;1276;24256;-67
2023/02/11 11:28:57;;;;;;;17.00;10.20;;;;;;;2.96;50.12;96932.16;106607;1276;24383;-67
2023/02/11 11:31:31;;;;;;;19.00;9.70;;;;;;;2.93;51.24;96923.91;106669;1276;25396;-67
2023/02/11 11:34:13;;;;;;;31.40;17.00;;;;;;;3.17;50.98;96918.95;106636;1276;22529;-67
2023/02/11 11:36:42;;;;;;;26.00;14.50;;;;;;;3.75;50.84;96913.88;106652;1276;22653;-67
2023/02/11 11:39:32;;;;;;;28.00;16.30;;;;;;;4.52;49.23;96895.27;106578;1276;24379;-67
2023/02/11 11:42:07;;;;;;;24.90;14.60;;;;;;;5.29;48.58;96887.36;106671;1276;22662;-67
2023/02/11 11:44:38;;;;;;;28.40;15.90;;;;;;;5.79;45.95;96882.53;106617;1276;22539;-68